createdAt,value
2019-01-03T00:00:28.305Z,5.57
2019-01-03T00:03:04.444Z,7.00
2019-01-03T00:05:50.629Z,4.87
2019-01-03T00:08:36.029Z,9.00
2019-01-03T00:11:06.089Z,7.13
2019-01-03T00:13:36.182Z,7.97
2019-01-03T00:16:18.669Z,8.13
2019-01-03T00:18:48.754Z,6.30
2019-01-03T00:21:35.436Z,6.63
2019-01-03T00:24:21.995Z,6.00
2019-01-03T00:26:57.883Z,6.30
2019-01-03T00:29:33.445Z,6.73
2019-01-03T00:32:06.199Z,7.43
2019-01-03T00:34:44.903Z,12.50
2019-01-03T00:37:26.789Z,9.60
2019-01-03T00:40:02.613Z,8.43
2019-01-03T00:42:32.703Z,8.53
2019-01-03T00:45:08.529Z,7.87
2019-01-03T00:47:54.940Z,12.40
2019-01-03T00:50:34.238Z,6.97
2019-01-03T00:53:07.285Z,8.80
2019-01-03T00:55:37.460Z,9.63
2019-01-03T00:58:19.796Z,8.40
2019-01-03T01:01:06.246Z,10.73
2019-01-03T01:03:48.593Z,10.03
2019-01-03T01:06:37.002Z,11.17
2019-01-03T01:09:14.852Z,9.43
2019-01-03T01:12:01.443Z,9.83
2019-01-03T01:14:34.021Z,6.53
2019-01-03T01:17:19.417Z,9.05
2019-01-03T01:19:49.504Z,10.27
2019-01-03T01:22:25.544Z,8.30
2019-01-03T01:25:07.617Z,9.00
2019-01-03T01:27:40.650Z,9.80
2019-01-03T01:30:10.882Z,11.13
2019-01-03T01:32:56.124Z,11.23
2019-01-03T01:35:26.235Z,9.23
2019-01-03T01:38:05.592Z,8.70
2019-01-03T01:40:35.709Z,7.10
2019-01-03T01:43:05.899Z,8.43
2019-01-03T01:45:35.980Z,9.63
2019-01-03T01:48:06.051Z,8.47
2019-01-03T01:50:52.325Z,9.67
2019-01-03T01:53:31.330Z,11.10
2019-01-03T01:56:01.428Z,10.63
2019-01-03T01:58:31.504Z,9.40
2019-01-03T02:01:04.056Z,8.33
2019-01-03T02:03:36.764Z,9.97
2019-01-03T02:06:25.172Z,9.50
2019-01-03T02:09:11.651Z,12.07
2019-01-03T02:11:47.308Z,6.50
2019-01-03T02:14:17.369Z,6.37
2019-01-03T02:17:03.726Z,11.53
2019-01-03T02:19:36.748Z,11.10
2019-01-03T02:22:09.670Z,8.07
2019-01-03T02:24:39.736Z,5.77
2019-01-03T02:27:12.275Z,8.83
2019-01-03T02:29:45.056Z,6.27
2019-01-03T02:32:30.161Z,11.77
2019-01-03T02:35:02.978Z,9.27
2019-01-03T02:37:45.287Z,7.73
2019-01-03T02:40:15.341Z,8.77
2019-01-03T02:42:45.485Z,6.73
2019-01-03T02:45:22.520Z,5.47
2019-01-03T02:48:01.614Z,10.43
2019-01-03T02:50:48.138Z,6.13
2019-01-03T02:53:29.920Z,9.13
2019-01-03T02:56:08.980Z,8.93
2019-01-03T02:58:39.044Z,8.60
2019-01-03T03:01:13.038Z,7.47
2019-01-03T03:04:01.200Z,7.20
2019-01-03T03:06:43.328Z,8.00
2019-01-03T03:09:13.485Z,11.17
2019-01-03T03:11:43.563Z,11.53
2019-01-03T03:14:22.437Z,5.03
2019-01-03T03:17:01.381Z,6.67
2019-01-03T03:19:31.458Z,12.33
2019-01-03T03:22:01.523Z,8.77
2019-01-03T03:24:34.524Z,8.67
2019-01-03T03:27:04.578Z,8.90
2019-01-03T03:29:51.093Z,10.33
2019-01-03T03:32:21.245Z,8.40
2019-01-03T03:35:07.863Z,9.23
2019-01-03T03:37:37.922Z,7.17
2019-01-03T03:40:24.926Z,7.03
2019-01-03T03:43:03.932Z,7.03
2019-01-03T03:45:34.019Z,5.77
2019-01-03T03:48:06.783Z,5.70
2019-01-03T03:50:52.939Z,7.87
2019-01-03T03:53:25.673Z,8.07
2019-01-03T03:56:01.488Z,8.60
2019-01-03T03:58:34.211Z,7.07
2019-01-03T04:01:16.148Z,6.53
2019-01-03T04:04:02.154Z,7.23
2019-01-03T04:06:41.366Z,7.50
2019-01-03T04:09:11.571Z,4.90
2019-01-03T04:11:53.972Z,7.97
2019-01-03T04:14:29.787Z,9.60
2019-01-03T04:17:18.189Z,6.87
2019-01-03T04:20:04.321Z,7.93
2019-01-03T04:22:43.710Z,8.13
2019-01-03T04:25:13.837Z,6.07
2019-01-03T04:27:52.808Z,6.00
2019-01-03T04:30:25.841Z,7.10
2019-01-03T04:33:11.288Z,4.13
2019-01-03T04:35:43.991Z,5.30
2019-01-03T04:38:14.072Z,5.30
2019-01-03T04:40:59.293Z,8.07
2019-01-03T04:43:35.127Z,5.90
2019-01-03T04:46:05.165Z,6.97
2019-01-03T04:48:41.453Z,9.10
2019-01-03T04:51:27.567Z,5.90
2019-01-03T04:54:13.901Z,9.47
2019-01-03T04:56:50.092Z,8.10
2019-01-03T04:59:38.653Z,7.10
2019-01-03T05:02:08.794Z,8.23
2019-01-03T05:04:55.217Z,7.13
2019-01-03T05:07:31.469Z,8.03
2019-01-03T05:10:03.088Z,8.23
2019-01-03T05:12:49.348Z,11.00
2019-01-03T05:15:25.444Z,7.73
2019-01-03T05:18:04.286Z,4.43
2019-01-03T05:20:37.052Z,9.23
2019-01-03T05:23:22.475Z,7.40
2019-01-03T05:25:58.636Z,8.07
2019-01-03T05:28:44.815Z,6.87
2019-01-03T05:31:14.921Z,16.07
2019-01-03T05:34:01.253Z,6.90
2019-01-03T05:36:34.257Z,13.03
2019-01-03T05:39:19.402Z,6.83
2019-01-03T05:42:01.492Z,5.27
2019-01-03T05:44:48.077Z,9.13
2019-01-03T05:47:18.130Z,8.17
2019-01-03T05:50:04.137Z,6.27
2019-01-03T05:52:46.321Z,8.37
2019-01-03T05:55:16.421Z,8.17
2019-01-03T05:58:02.461Z,8.93
2019-01-03T06:00:48.740Z,5.30
2019-01-03T06:03:28.002Z,8.93
2019-01-03T06:06:10.115Z,6.60
2019-01-03T06:08:46.826Z,7.33
2019-01-03T06:11:32.974Z,6.67
2019-01-03T06:14:03.025Z,7.92
2019-01-03T06:16:36.062Z,6.77
2019-01-03T06:19:06.126Z,5.70
2019-01-03T06:21:38.836Z,7.93
2019-01-03T06:24:08.905Z,6.60
2019-01-03T06:26:47.815Z,7.33
2019-01-03T06:29:17.908Z,8.13
2019-01-03T06:31:47.963Z,7.33
2019-01-03T06:34:20.774Z,12.00
2019-01-03T06:36:50.853Z,7.27
2019-01-03T06:39:32.559Z,10.50
2019-01-03T06:42:05.401Z,5.43
2019-01-03T06:44:41.302Z,9.70
2019-01-03T06:47:27.393Z,9.50
2019-01-03T06:50:03.452Z,9.67
2019-01-03T06:52:45.555Z,7.37
2019-01-03T06:55:31.668Z,11.93
2019-01-03T06:58:18.332Z,9.30
2019-01-03T07:00:48.407Z,13.93
2019-01-03T07:03:18.466Z,10.67
2019-01-03T07:05:51.272Z,12.07
2019-01-03T07:08:37.341Z,8.07
2019-01-03T07:11:13.218Z,9.30
2019-01-03T07:13:58.325Z,9.47
2019-01-03T07:16:28.406Z,8.20
2019-01-03T07:19:14.772Z,6.53
2019-01-03T07:22:03.312Z,7.73
2019-01-03T07:24:33.401Z,9.20
2019-01-03T07:27:06.513Z,8.53
2019-01-03T07:29:36.607Z,14.03
2019-01-03T07:32:06.713Z,8.00
2019-01-03T07:34:42.836Z,11.53
2019-01-03T07:37:24.747Z,8.20
2019-01-03T07:39:55.198Z,12.10
2019-01-03T07:42:33.975Z,8.33
2019-01-03T07:45:20.371Z,8.93
2019-01-03T07:48:07.081Z,11.53
2019-01-03T07:50:52.479Z,10.53
2019-01-03T07:53:34.574Z,9.23
2019-01-03T07:56:04.683Z,11.40
2019-01-03T07:58:49.772Z,12.73
2019-01-03T08:01:28.954Z,6.33
2019-01-03T08:04:07.852Z,9.23
2019-01-03T08:06:54.181Z,6.50
2019-01-03T08:09:40.419Z,11.10
2019-01-03T08:12:26.682Z,8.47
2019-01-03T08:15:02.500Z,12.57
2019-01-03T08:17:44.459Z,10.93
2019-01-03T08:20:17.168Z,11.13
2019-01-03T08:22:47.247Z,11.93
2019-01-03T08:25:35.379Z,7.83
2019-01-03T08:28:05.559Z,9.37
2019-01-03T08:30:47.484Z,8.50
2019-01-03T08:33:23.129Z,11.67
2019-01-03T08:35:59.185Z,10.37
2019-01-03T08:38:29.285Z,11.03
2019-01-03T08:41:08.090Z,9.37
2019-01-03T08:43:53.131Z,9.83
2019-01-03T08:46:39.931Z,8.50
2019-01-03T08:49:12.677Z,13.43
2019-01-03T08:51:58.661Z,14.70
2019-01-03T08:54:47.040Z,9.10
2019-01-03T08:57:26.206Z,8.30
2019-01-03T09:00:02.411Z,9.70
2019-01-03T09:02:32.579Z,7.73
2019-01-03T09:05:08.389Z,5.57
2019-01-03T09:07:47.149Z,10.10
2019-01-03T09:10:23.155Z,10.65
2019-01-03T09:13:09.787Z,10.82
2019-01-03T09:15:48.952Z,9.20
2019-01-03T09:18:21.965Z,13.03
2019-01-03T09:20:54.845Z,8.87
2019-01-03T09:23:27.660Z,8.95
2019-01-03T09:26:07.032Z,12.63
2019-01-03T09:28:53.704Z,6.20
2019-01-03T09:31:23.780Z,8.93
2019-01-03T09:34:02.607Z,8.40
2019-01-03T09:36:35.784Z,10.20
2019-01-03T09:39:20.470Z,8.13
2019-01-03T09:41:56.877Z,10.50
2019-01-03T09:44:32.639Z,7.87
2019-01-03T09:47:01.113Z,16.03
2019-01-03T09:49:29.524Z,9.30
2019-01-03T09:51:57.988Z,7.30
2019-01-03T09:54:26.501Z,10.23
2019-01-03T09:56:54.928Z,10.67
2019-01-03T09:59:23.471Z,10.60
2019-01-03T10:01:51.932Z,12.83
2019-01-03T10:04:20.393Z,10.87
2019-01-03T10:06:48.902Z,10.30
2019-01-03T10:09:17.326Z,7.73
2019-01-03T10:11:45.760Z,9.10
2019-01-03T10:14:14.192Z,7.13
2019-01-03T10:16:42.637Z,12.97
2019-01-03T10:19:11.066Z,7.53
2019-01-03T10:21:39.502Z,10.20
2019-01-03T10:24:07.963Z,11.90
2019-01-03T10:26:36.403Z,10.88
2019-01-03T10:29:04.821Z,13.10
2019-01-03T10:31:33.259Z,11.48
2019-01-03T10:34:01.706Z,12.00
2019-01-03T10:36:30.206Z,15.07
2019-01-03T10:38:58.843Z,8.83
2019-01-03T10:41:27.263Z,13.80
2019-01-03T10:43:55.708Z,11.20
2019-01-03T10:46:24.146Z,10.00
2019-01-03T10:48:52.583Z,13.43
2019-01-03T10:51:20.998Z,10.93
2019-01-03T10:53:49.437Z,9.47
2019-01-03T10:56:17.933Z,9.33
2019-01-03T10:58:46.436Z,10.30
2019-01-03T11:01:14.857Z,8.70
2019-01-03T11:03:43.314Z,11.03
2019-01-03T11:06:11.809Z,13.07
2019-01-03T11:08:40.301Z,12.90
2019-01-03T11:11:08.714Z,10.83
2019-01-03T11:13:37.233Z,19.60
2019-01-03T11:16:05.762Z,12.30
2019-01-03T11:18:34.337Z,10.50
2019-01-03T11:21:02.826Z,6.70
2019-01-03T11:23:31.459Z,7.97
2019-01-03T11:25:59.937Z,9.50
2019-01-03T11:28:28.388Z,11.67
2019-01-03T11:30:56.839Z,8.60
2019-01-03T11:33:25.250Z,8.30
2019-01-03T11:35:53.702Z,6.93
2019-01-03T11:38:22.185Z,7.93
2019-01-03T11:40:50.728Z,3.70
2019-01-03T11:43:19.181Z,9.53
2019-01-03T11:45:47.665Z,7.00
2019-01-03T11:48:16.089Z,5.93
2019-01-03T11:50:44.569Z,6.70
2019-01-03T11:53:13.102Z,6.67
2019-01-03T11:55:41.550Z,5.83
2019-01-03T11:58:09.964Z,8.00
2019-01-03T12:00:38.397Z,6.43
2019-01-03T12:03:06.949Z,5.40
2019-01-03T12:05:35.353Z,6.97
2019-01-03T12:08:03.953Z,5.50
2019-01-03T12:10:32.378Z,4.27
2019-01-03T12:13:00.837Z,4.27
2019-01-03T12:15:29.308Z,6.00
2019-01-03T12:17:57.767Z,9.43
2019-01-03T12:20:26.259Z,9.43
2019-01-03T12:22:54.682Z,5.37
2019-01-03T12:25:23.109Z,6.33
2019-01-03T12:27:51.556Z,6.73
2019-01-03T12:30:19.961Z,8.13
2019-01-03T12:32:48.415Z,4.07
2019-01-03T12:35:16.837Z,4.87
2019-01-03T12:37:45.275Z,6.80
2019-01-03T12:40:15.024Z,5.00
2019-01-03T12:42:43.571Z,8.13
2019-01-03T12:45:12.014Z,7.92
2019-01-03T12:47:40.464Z,4.40
2019-01-03T12:50:10.445Z,6.13
2019-01-03T12:52:38.931Z,9.73
2019-01-03T12:55:07.522Z,6.77
2019-01-03T12:57:36.125Z,6.63
2019-01-03T13:00:09.251Z,6.63
2019-01-03T13:02:37.696Z,3.93
2019-01-03T13:05:07.047Z,8.27
2019-01-03T13:07:35.497Z,11.43
2019-01-03T13:10:06.061Z,8.47
2019-01-03T13:12:34.582Z,6.90
2019-01-03T13:15:03.305Z,6.73
2019-01-03T13:17:31.730Z,10.40
2019-01-03T13:20:00.391Z,15.77
2019-01-03T13:22:28.805Z,10.70
2019-01-03T13:24:57.277Z,11.07
2019-01-03T13:27:25.684Z,10.20
2019-01-03T13:29:54.138Z,12.97
2019-01-03T13:32:22.721Z,9.13
2019-01-03T13:34:51.209Z,14.93
2019-01-03T13:37:19.660Z,12.83
2019-01-03T13:39:48.114Z,13.37
2019-01-03T13:42:16.529Z,11.50
2019-01-03T13:44:44.997Z,14.93
2019-01-03T13:47:13.498Z,9.80
2019-01-03T13:49:42.540Z,13.53
2019-01-03T13:52:10.960Z,11.93
2019-01-03T13:54:39.413Z,10.50
2019-01-03T13:57:07.873Z,11.20
2019-01-03T13:59:36.359Z,18.60
2019-01-03T14:02:04.910Z,7.97
2019-01-03T14:04:33.360Z,18.17
2019-01-03T14:07:01.842Z,14.00
2019-01-03T14:09:30.338Z,12.50
2019-01-03T14:11:58.789Z,16.77
2019-01-03T14:14:27.209Z,11.05
2019-01-03T14:16:55.857Z,11.60
2019-01-03T14:19:24.272Z,14.17
2019-01-03T14:21:52.740Z,10.93
2019-01-03T14:24:21.153Z,13.87
2019-01-03T14:26:49.599Z,11.47
2019-01-03T14:29:18.028Z,14.53
2019-01-03T14:31:46.664Z,14.40
2019-01-03T14:34:15.103Z,13.77
2019-01-03T14:39:11.272Z,12.35
2019-01-03T14:41:39.744Z,15.80
2019-01-03T14:44:08.178Z,17.03
2019-01-03T14:46:36.681Z,15.20
2019-01-03T14:49:05.140Z,12.73
2019-01-03T14:51:33.661Z,17.42
2019-01-03T14:54:02.255Z,16.12
2019-01-03T14:56:30.734Z,14.60
2019-01-03T14:58:59.140Z,15.90
2019-01-03T15:01:27.637Z,17.93
2019-01-03T15:03:56.085Z,17.27
2019-01-03T15:06:24.517Z,15.63
2019-01-03T15:08:52.984Z,16.37
2019-01-03T15:11:21.439Z,16.43
2019-01-03T15:13:49.946Z,17.30
2019-01-03T15:16:18.488Z,15.93
2019-01-03T15:18:47.013Z,17.02
2019-01-03T15:21:15.452Z,12.40
2019-01-03T15:23:43.942Z,16.93
2019-01-03T15:26:12.414Z,16.70
2019-01-03T15:28:40.882Z,17.73
2019-01-03T15:33:36.989Z,14.70
2019-01-03T15:36:05.479Z,18.27
2019-01-03T15:38:34.056Z,18.50
2019-01-03T15:41:02.490Z,18.25
2019-01-03T15:43:30.953Z,18.15
2019-01-03T15:45:59.417Z,22.20
2019-01-03T15:48:27.876Z,15.45
2019-01-03T15:50:56.434Z,18.62
2019-01-03T15:53:24.993Z,16.40
2019-01-03T15:55:53.438Z,17.55
2019-01-03T15:58:21.870Z,18.50
2019-01-03T16:00:50.314Z,18.40
2019-01-03T16:03:18.756Z,16.67
2019-01-03T16:05:47.357Z,16.80
2019-01-03T16:08:15.783Z,17.60
2019-01-03T16:10:44.223Z,16.45
2019-01-03T16:13:12.637Z,19.40
2019-01-03T16:15:41.191Z,21.62
2019-01-03T16:18:09.679Z,17.80
2019-01-03T16:20:38.120Z,18.75
2019-01-03T16:23:06.679Z,18.17
2019-01-03T16:25:35.119Z,19.35
2019-01-03T16:28:03.542Z,16.52
2019-01-03T16:30:32.043Z,22.77
2019-01-03T16:33:00.579Z,20.30
2019-01-03T16:35:29.197Z,22.93
2019-01-03T16:37:57.701Z,17.25
2019-01-03T16:40:26.228Z,17.15
2019-01-03T16:42:54.722Z,21.43
2019-01-03T16:45:23.255Z,16.42
2019-01-03T16:47:51.677Z,19.55
2019-01-03T16:50:20.166Z,19.42
2019-01-03T16:52:48.672Z,19.42
2019-01-03T16:55:17.180Z,21.17
2019-01-03T16:57:45.608Z,19.80
2019-01-03T17:00:14.177Z,19.92
2019-01-03T17:02:42.701Z,18.20
2019-01-03T17:05:11.280Z,17.62
2019-01-03T17:07:39.817Z,16.73
2019-01-03T17:10:11.382Z,19.60
2019-01-03T17:12:39.846Z,20.97
2019-01-03T17:15:08.359Z,20.55
2019-01-03T17:17:36.882Z,18.67
2019-01-03T17:20:08.629Z,23.05
2019-01-03T17:22:37.088Z,21.62
2019-01-03T17:25:08.263Z,20.87
2019-01-03T17:27:36.701Z,20.27
2019-01-03T17:30:07.582Z,22.55
2019-01-03T17:32:36.010Z,20.15
2019-01-03T17:35:06.960Z,19.10
2019-01-03T17:37:35.535Z,20.30
2019-01-03T17:40:08.962Z,25.57
2019-01-03T17:42:37.398Z,21.97
2019-01-03T17:45:08.795Z,19.77
2019-01-03T17:47:37.228Z,21.85
2019-01-03T17:50:09.109Z,20.43
2019-01-03T17:52:37.671Z,24.00
2019-01-03T17:55:07.733Z,23.25
2019-01-03T17:57:36.383Z,20.55
2019-01-03T18:00:11.544Z,21.95
2019-01-03T18:02:40.196Z,24.30
2019-01-03T18:05:08.730Z,22.13
2019-01-03T18:07:37.158Z,21.80
2019-01-03T18:10:08.733Z,20.88
2019-01-03T18:12:37.157Z,21.93
2019-01-03T18:15:07.105Z,23.07
2019-01-03T18:17:35.552Z,22.55
2019-01-03T18:20:06.216Z,24.60
2019-01-03T18:22:34.682Z,22.22
2019-01-03T18:25:04.736Z,24.45
2019-01-03T18:27:33.150Z,23.77
2019-01-03T18:30:01.616Z,23.95
2019-01-03T18:32:30.097Z,23.35
2019-01-03T18:34:58.542Z,21.75
2019-01-03T18:37:26.987Z,21.23
2019-01-03T18:39:55.474Z,21.77
2019-01-03T18:42:23.991Z,23.55
2019-01-03T18:44:52.563Z,25.37
2019-01-03T18:47:21.045Z,23.40
2019-01-03T18:49:49.473Z,23.07
2019-01-03T18:52:18.041Z,25.65
2019-01-03T18:54:46.510Z,24.37
2019-01-03T18:57:14.968Z,24.60
2019-01-03T18:59:43.417Z,26.33
2019-01-03T19:02:11.926Z,22.05
2019-01-03T19:04:40.345Z,24.85
2019-01-03T19:07:08.808Z,23.73
2019-01-03T19:09:37.248Z,21.73
2019-01-03T19:12:05.713Z,23.62
2019-01-03T19:14:34.226Z,23.40
2019-01-03T19:17:02.764Z,22.33
2019-01-03T19:19:31.283Z,25.37
2019-01-03T19:21:59.751Z,21.90
2019-01-03T19:24:28.180Z,25.95
2019-01-03T19:26:56.605Z,25.23
2019-01-03T19:29:25.086Z,23.45
2019-01-03T19:31:53.508Z,22.55
2019-01-03T19:34:21.986Z,25.60
2019-01-03T19:36:50.424Z,25.00
2019-01-03T19:39:18.912Z,23.43
2019-01-03T19:41:47.350Z,23.18
2019-01-03T19:44:15.797Z,25.75
2019-01-03T19:46:44.333Z,23.10
2019-01-03T19:49:12.816Z,27.85
2019-01-03T19:51:41.306Z,26.60
2019-01-03T19:54:10.688Z,22.27
2019-01-03T19:56:39.245Z,26.27
2019-01-03T19:59:07.797Z,27.75
2019-01-03T20:01:36.331Z,24.57
2019-01-03T20:04:04.836Z,21.93
2019-01-03T20:06:33.432Z,24.60
2019-01-03T20:09:02.040Z,23.00
2019-01-03T20:11:30.665Z,25.00
2019-01-03T20:13:59.164Z,22.00
2019-01-03T20:16:27.634Z,23.52
2019-01-03T20:18:56.166Z,24.47
2019-01-03T20:21:24.734Z,24.40
2019-01-03T20:23:53.275Z,24.05
2019-01-03T20:26:21.698Z,23.15
2019-01-03T20:28:50.152Z,23.12
2019-01-03T20:31:18.605Z,22.07
2019-01-03T20:33:47.198Z,25.20
2019-01-03T20:36:15.692Z,24.18
2019-01-03T20:38:44.125Z,26.05
2019-01-03T20:41:13.477Z,24.57
2019-01-03T20:43:42.029Z,24.37
2019-01-03T20:46:10.690Z,24.63
2019-01-03T20:48:39.176Z,28.27
2019-01-03T20:51:07.779Z,27.45
2019-01-03T20:53:36.206Z,25.30
2019-01-03T20:56:04.771Z,25.45
2019-01-03T20:58:33.273Z,25.33
2019-01-03T21:01:01.902Z,29.67
2019-01-03T21:03:30.385Z,28.32
2019-01-03T21:05:58.934Z,25.80
2019-01-03T21:08:27.684Z,27.67
2019-01-03T21:10:56.200Z,27.80
2019-01-03T21:13:25.233Z,30.70
2019-01-03T21:15:53.730Z,29.52
2019-01-03T21:18:22.249Z,25.75
2019-01-03T21:20:50.714Z,30.03
2019-01-03T21:23:19.530Z,29.77
2019-01-03T21:25:48.047Z,28.52
2019-01-03T21:28:16.557Z,31.52
2019-01-03T21:30:45.198Z,34.70
2019-01-03T21:33:13.768Z,31.45
2019-01-03T21:35:42.315Z,29.02
2019-01-03T21:38:10.836Z,28.27
2019-01-03T21:40:39.429Z,30.95
2019-01-03T21:43:08.128Z,30.50
2019-01-03T21:45:36.724Z,27.98
2019-01-03T21:48:06.989Z,31.23
2019-01-03T21:50:35.552Z,29.45
2019-01-03T21:53:04.080Z,29.43
2019-01-03T21:55:32.541Z,34.43
2019-01-03T21:58:01.133Z,30.25
2019-01-03T22:00:29.598Z,26.30
2019-01-03T22:02:58.035Z,28.57
2019-01-03T22:05:26.477Z,29.55
2019-01-03T22:07:54.958Z,31.00
2019-01-03T22:10:23.373Z,30.35
2019-01-03T22:12:51.819Z,29.70
2019-01-03T22:15:20.268Z,30.85
2019-01-03T22:17:48.739Z,31.35
2019-01-03T22:20:17.207Z,31.33
2019-01-03T22:22:45.692Z,30.77
2019-01-03T22:25:14.160Z,32.98
2019-01-03T22:27:42.675Z,30.82
2019-01-03T22:30:11.368Z,33.88
2019-01-03T22:32:39.877Z,29.87
2019-01-03T22:35:09.959Z,26.95
2019-01-03T22:37:38.369Z,30.45
2019-01-03T22:40:07.874Z,28.92
2019-01-03T22:42:36.385Z,30.27
2019-01-03T22:45:06.875Z,30.35
2019-01-03T22:47:35.313Z,28.38
2019-01-03T22:50:05.913Z,30.90
2019-01-03T22:52:34.583Z,31.23
2019-01-03T22:55:03.135Z,27.48
2019-01-03T22:57:31.676Z,31.20
2019-01-03T23:00:00.216Z,28.98
2019-01-03T23:02:28.785Z,33.25
2019-01-03T23:04:57.235Z,28.52
2019-01-03T23:07:25.833Z,29.15
2019-01-03T23:09:54.293Z,30.55
2019-01-03T23:12:22.809Z,29.15
2019-01-03T23:14:51.327Z,32.85
2019-01-03T23:17:19.800Z,30.43
2019-01-03T23:19:48.306Z,27.98
2019-01-03T23:22:16.768Z,29.87
2019-01-03T23:24:45.207Z,30.12
2019-01-03T23:27:13.655Z,32.48
2019-01-03T23:29:42.274Z,27.00
2019-01-03T23:32:10.744Z,26.85
2019-01-03T23:34:39.271Z,32.13
2019-01-03T23:37:07.865Z,26.25
2019-01-03T23:39:36.318Z,30.20
2019-01-03T23:42:04.785Z,30.80
2019-01-03T23:44:33.209Z,30.80
2019-01-03T23:47:01.673Z,32.33
2019-01-03T23:49:30.165Z,32.78
2019-01-03T23:51:58.609Z,31.65
2019-01-03T23:54:27.122Z,27.50
2019-01-03T23:56:55.729Z,29.35
2019-01-03T23:59:24.177Z,28.83
